Time;durP1;ratioP1;P1;durP2;ratioP2;P2;SDS_P1;SDS_P2;PMS_P1;PMS_P2;Temp;Humidity;BMP_temperature;BMP_pressure;BME280_temperature;BME280_humidity;BME280_pressure;Samples;Min_cycle;Max_cycle;Signal;HPM_P1;HPM_P2
2021/12/26 00:00:56;;;;;;;12.00;3.92;;;-4.00;99.90;;;;;;5058897;28;20079;-73
2021/12/26 00:03:23;;;;;;;7.95;3.45;;;-4.00;99.90;;;;;;5075167;28;20503;-73
2021/12/26 00:05:50;;;;;;;10.32;4.75;;;-4.00;99.90;;;;;;5074904;28;20047;-73
2021/12/26 00:08:16;;;;;;;9.32;4.43;;;;;;;;;;5058726;28;20460;-73
2021/12/26 00:10:42;;;;;;;9.40;3.83;;;;;;;;;;5083408;28;20032;-73
2021/12/26 00:13:08;;;;;;;7.57;4.28;;;;;;;;;;5086792;28;20040;-73
2021/12/26 00:15:34;;;;;;;9.20;3.92;;;;;;;;;;5075093;28;20033;-73
2021/12/26 00:18:00;;;;;;;6.85;3.60;;;;;;;;;;5080778;28;20040;-73
2021/12/26 00:20:27;;;;;;;6.20;3.95;;;;;;;;;;5094733;28;20036;-73
2021/12/26 00:22:53;;;;;;;9.93;3.92;;;;;;;;;;5058139;28;20063;-73
2021/12/26 00:25:19;;;;;;;6.28;3.90;;;;;;;;;;5075111;28;20048;-73
2021/12/26 00:27:45;;;;;;;13.02;3.75;;;;;;;;;;5076996;28;20040;-73
2021/12/26 00:30:18;;;;;;;6.82;3.63;;;-4.10;99.90;;;;;;5095008;28;20078;-73
2021/12/26 00:32:44;;;;;;;7.47;3.95;;;;;;;;;;5094192;28;20044;-74
2021/12/26 00:35:12;;;;;;;7.10;3.42;;;-4.10;99.90;;;;;;5074530;28;20047;-73
2021/12/26 00:37:38;;;;;;;8.43;3.40;;;;;;;;;;5074229;28;20508;-73
2021/12/26 00:40:05;;;;;;;7.00;3.92;;;;;;;;;;5074385;28;20127;-73
2021/12/26 00:42:31;;;;;;;5.07;3.47;;;;;;;;;;5057951;28;20468;-73
2021/12/26 00:44:57;;;;;;;4.82;3.40;;;;;;;;;;5074279;28;20162;-73
2021/12/26 00:47:23;;;;;;;8.48;3.83;;;;;;;;;;5074194;28;20050;-73
2021/12/26 00:49:49;;;;;;;6.75;3.90;;;;;;;;;;5076289;28;20501;-73
2021/12/26 00:52:15;;;;;;;6.28;3.60;;;;;;;;;;5074186;28;20058;-74
2021/12/26 00:54:41;;;;;;;9.00;4.70;;;;;;;;;;5087591;28;20396;-73
2021/12/26 00:57:07;;;;;;;6.45;3.45;;;;;;;;;;5077481;28;20051;-73
2021/12/26 00:59:33;;;;;;;6.57;3.25;;;;;;;;;;5090094;28;20073;-73
2021/12/26 01:02:00;;;;;;;6.70;3.50;;;-4.30;99.90;;;;;;5093895;28;20082;-73
2021/12/26 01:04:26;;;;;;;6.72;3.50;;;;;;;;;;5083651;28;20040;-73
2021/12/26 01:06:52;;;;;;;6.65;3.58;;;-4.50;99.90;;;;;;5074040;28;20532;-73
2021/12/26 01:09:23;;;;;;;6.50;3.70;;;;;;;;;;5077228;28;20043;-74
2021/12/26 01:11:53;;;;;;;5.93;3.22;;;;;;;;;;5074021;28;20059;-73
2021/12/26 01:14:26;;;;;;;6.85;3.63;;;-4.40;99.90;;;;;;5081893;28;20051;-74
2021/12/26 01:17:03;;;;;;;5.90;3.00;;;-4.50;99.90;;;;;;5094219;28;20043;-73
2021/12/26 01:19:39;;;;;;;6.63;3.50;;;;;;;;;;5087960;28;20105;-73
2021/12/26 01:22:05;;;;;;;5.32;3.05;;;;;;;;;;5094181;28;20439;-73
2021/12/26 01:24:31;;;;;;;6.18;3.00;;;;;;;;;;5085432;28;20448;-73
2021/12/26 01:26:57;;;;;;;6.38;3.10;;;;;;;;;;5073530;28;20557;-74
2021/12/26 01:29:23;;;;;;;5.88;3.45;;;;;;;;;;5079459;28;20032;-74
2021/12/26 01:31:49;;;;;;;4.53;2.88;;;;;;;;;;5072675;28;20041;-73
2021/12/26 01:34:15;;;;;;;4.47;2.75;;;;;;;;;;5078542;28;20472;-73
2021/12/26 01:36:41;;;;;;;4.45;2.80;;;;;;;;;;5094021;28;20400;-73
2021/12/26 01:39:09;;;;;;;6.50;3.10;;;;;;;;;;5086151;28;20047;-73
2021/12/26 01:41:39;;;;;;;5.63;3.20;;;;;;;;;;5093195;28;20476;-73
2021/12/26 01:44:09;;;;;;;7.00;3.17;;;-4.60;99.90;;;;;;5090245;28;20052;-73
2021/12/26 01:46:35;;;;;;;4.78;3.20;;;;;;;;;;5073142;28;20041;-73
2021/12/26 01:49:11;;;;;;;12.95;3.75;;;-4.50;99.90;;;;;;5046140;28;20494;-73
2021/12/26 01:51:38;;;;;;;3.50;2.78;;;-4.50;99.90;;;;;;5073273;28;20071;-74
2021/12/26 01:54:09;;;;;;;8.85;3.70;;;-4.50;99.90;;;;;;5073132;28;20048;-73
2021/12/26 01:56:36;;;;;;;6.47;2.70;;;-4.30;99.90;;;;;;5073000;28;20055;-73
2021/12/26 01:59:04;;;;;;;5.10;3.08;;;-4.50;99.90;;;;;;5080946;28;20040;-73
2021/12/26 02:01:31;;;;;;;5.68;3.20;;;;;;;;;;5073041;28;20044;-73
2021/12/26 02:03:57;;;;;;;7.50;3.05;;;;;;;;;;5072775;28;20040;-73
2021/12/26 02:06:23;;;;;;;6.57;2.80;;;;;;;;;;5089268;28;20128;-73
2021/12/26 02:08:49;;;;;;;6.40;2.70;;;;;;;;;;5063709;28;20036;-73
2021/12/26 02:11:16;;;;;;;4.78;2.83;;;-4.50;99.90;;;;;;5074160;28;20036;-73
2021/12/26 02:13:43;;;;;;;6.55;2.72;;;;;;;;;;5074550;28;20036;-73
2021/12/26 02:16:11;;;;;;;4.03;2.58;;;-4.50;99.90;;;;;;5072059;28;20047;-74
2021/12/26 02:18:38;;;;;;;4.38;2.85;;;;;;;;;;5078033;28;20445;-73
2021/12/26 02:21:33;;;;;;;5.35;2.78;;;-4.60;99.90;;;;;;5071921;28;20051;-73
2021/12/26 02:24:21;;;;;;;3.92;2.88;;;-4.50;99.90;;;;;;5072516;28;20048;-73
2021/12/26 02:29:31;;;;;;;4.95;2.67;;;;;;;;;;5086039;28;20071;-73
2021/12/26 02:31:57;;;;;;;5.70;2.72;;;;;;;;;;5039061;28;20053;-73
2021/12/26 02:34:23;;;;;;;4.47;2.85;;;;;;;;;;5073289;28;20047;-73
2021/12/26 02:36:50;;;;;;;5.35;3.00;;;;;;;;;;5075789;28;20123;-73
2021/12/26 02:39:16;;;;;;;4.07;2.70;;;;;;;;;;5079777;28;20040;-73
2021/12/26 02:41:43;;;;;;;3.35;2.40;;;-4.60;99.90;;;;;;5089900;28;20048;-73
2021/12/26 02:44:09;;;;;;;3.45;2.50;;;;;;;;;;5092604;28;20048;-73
2021/12/26 02:46:35;;;;;;;3.88;2.35;;;;;;;;;;5076297;28;20041;-73
2021/12/26 02:49:01;;;;;;;4.72;2.85;;;;;;;;;;5082473;28;20059;-73
2021/12/26 02:51:27;;;;;;;5.43;3.20;;;;;;;;;;5077900;28;20044;-73
2021/12/26 02:53:53;;;;;;;4.45;2.80;;;;;;;;;;5072159;28;20043;-74
2021/12/26 02:56:19;;;;;;;5.68;3.22;;;;;;;;;;5068434;28;20048;-73
2021/12/26 02:58:45;;;;;;;5.75;2.97;;;;;;;;;;5084386;28;20384;-74
2021/12/26 03:01:12;;;;;;;3.95;2.50;;;;;;;;;;5066717;28;20048;-73
2021/12/26 03:03:38;;;;;;;4.57;2.72;;;;;;;;;;5091871;28;20069;-73
2021/12/26 03:06:12;;;;;;;5.82;2.78;;;-4.70;99.90;;;;;;5082397;28;20498;-73
2021/12/26 03:08:39;;;;;;;8.88;2.97;;;;;;;;;;5078950;28;20059;-73
2021/12/26 03:11:05;;;;;;;5.00;2.72;;;;;;;;;;5082910;28;20036;-73
2021/12/26 03:13:31;;;;;;;7.15;3.13;;;;;;;;;;5071998;28;20047;-73
2021/12/26 03:15:57;;;;;;;4.07;2.83;;;;;;;;;;5079291;28;20085;-73
2021/12/26 03:18:23;;;;;;;5.90;2.72;;;;;;;;;;5087232;28;20040;-73
2021/12/26 03:20:51;;;;;;;5.28;2.97;;;-4.80;99.90;;;;;;5060677;28;20464;-73
2021/12/26 03:23:20;;;;;;;3.40;2.58;;;-4.70;99.90;;;;;;5075377;28;20040;-73
2021/12/26 03:25:46;;;;;;;3.63;2.58;;;;;;;;;;5088054;28;20503;-73
2021/12/26 03:28:13;;;;;;;5.90;2.67;;;-4.70;99.90;;;;;;5057258;28;20051;-73
2021/12/26 03:30:39;;;;;;;4.13;2.70;;;-4.80;99.90;;;;;;5089336;28;20052;-73
2021/12/26 03:33:07;;;;;;;5.53;3.47;;;-4.70;99.90;;;;;;5071807;28;20076;-73
2021/12/26 03:35:34;;;;;;;5.40;2.65;;;-4.60;99.90;;;;;;5055406;28;20435;-73
2021/12/26 03:38:02;;;;;;;2.58;2.30;;;-4.60;99.90;;;;;;5070910;28;20040;-70
2021/12/26 03:40:28;;;;;;;8.18;2.90;;;;;;;;;;5071815;28;20044;-77
2021/12/26 03:42:55;;;;;;;8.65;2.80;;;;;;;;;;5071172;28;20044;-74
2021/12/26 03:45:21;;;;;;;4.18;2.33;;;;;;;;;;5069887;28;20143;-73
2021/12/26 03:47:50;;;;;;;7.70;2.70;;;;;;;;;;5084309;28;20085;-73
2021/12/26 03:50:18;;;;;;;5.57;2.90;;;-4.80;99.90;;;;;;5071654;28;20431;-73
2021/12/26 03:52:44;;;;;;;5.68;3.03;;;;;;;;;;5086867;28;20044;-73
2021/12/26 03:55:11;;;;;;;3.70;2.10;;;;;;;;;;5077622;28;20071;-73
2021/12/26 03:57:37;;;;;;;4.00;2.80;;;;;;;;;;5074919;28;20040;-73
2021/12/26 04:00:05;;;;;;;4.25;2.78;;;-4.70;99.90;;;;;;5075245;28;20128;-73
2021/12/26 04:02:31;;;;;;;3.65;2.30;;;;;;;;;;5074998;28;20052;-73
2021/12/26 04:04:57;;;;;;;5.10;2.60;;;;;;;;;;5075161;28;20404;-73
2021/12/26 04:07:23;;;;;;;5.00;2.67;;;;;;;;;;5085533;28;20113;-73
2021/12/26 04:09:49;;;;;;;3.10;2.50;;;;;;;;;;5076952;28;20090;-73
2021/12/26 04:12:16;;;;;;;4.65;2.53;;;;;;;;;;5083652;28;20032;-73
2021/12/26 04:14:42;;;;;;;5.93;2.53;;;;;;;;;;5062202;28;20040;-73
2021/12/26 04:17:08;;;;;;;4.03;2.65;;;;;;;;;;5087509;28;20047;-73
2021/12/26 04:19:34;;;;;;;3.42;2.20;;;;;;;;;;5090844;28;20044;-73
2021/12/26 04:22:02;;;;;;;8.07;2.65;;;;;;;;;;5088067;28;20094;-73
2021/12/26 04:24:30;;;;;;;4.43;2.17;;;;;;;;;;5074754;28;20049;-73
2021/12/26 04:26:56;;;;;;;5.03;2.42;;;;;;;;;;5078170;28;20057;-73
2021/12/26 04:29:22;;;;;;;7.07;2.30;;;;;;;;;;5080428;28;20044;-73
2021/12/26 04:31:48;;;;;;;6.63;2.42;;;;;;;;;;5076412;28;20393;-73
2021/12/26 04:34:14;;;;;;;4.90;2.20;;;;;;;;;;5077848;28;20044;-73
2021/12/26 04:36:41;;;;;;;4.28;2.22;;;;;;;;;;5077691;28;20051;-73
2021/12/26 04:39:07;;;;;;;4.40;2.50;;;;;;;;;;5086328;28;20040;-73
2021/12/26 04:41:33;;;;;;;3.63;2.20;;;;;;;;;;5077976;28;20062;-73
2021/12/26 04:43:59;;;;;;;5.65;2.20;;;;;;;;;;5075404;28;20519;-73
2021/12/26 04:46:25;;;;;;;3.17;2.30;;;;;;;;;;5074364;28;20131;-73
2021/12/26 04:48:51;;;;;;;6.10;2.70;;;;;;;;;;5082044;28;20033;-73
2021/12/26 04:51:17;;;;;;;3.80;2.30;;;;;;;;;;5074639;28;20071;-73
2021/12/26 04:53:43;;;;;;;8.30;2.55;;;;;;;;;;5090150;28;20097;-73
2021/12/26 04:56:10;;;;;;;4.50;2.80;;;;;;;;;;5094807;28;20035;-73
2021/12/26 04:58:36;;;;;;;4.53;2.40;;;;;;;;;;5088829;28;20043;-73
2021/12/26 05:01:02;;;;;;;5.65;2.42;;;;;;;;;;5094565;28;20078;-73
2021/12/26 05:03:29;;;;;;;3.95;2.40;;;-4.90;99.90;;;;;;5073402;28;20044;-74
2021/12/26 05:05:55;;;;;;;4.43;2.40;;;;;;;;;;5073193;28;20077;-73
2021/12/26 05:08:21;;;;;;;4.50;2.50;;;;;;;;;;5074536;28;20058;-74
2021/12/26 05:10:47;;;;;;;3.85;2.22;;;;;;;;;;5074084;28;20048;-73
2021/12/26 05:13:13;;;;;;;4.68;2.40;;;;;;;;;;5074045;28;20044;-74
2021/12/26 05:15:40;;;;;;;4.65;2.55;;;;;;;;;;5074031;28;20036;-73
2021/12/26 05:18:06;;;;;;;5.05;2.65;;;;;;;;;;5079242;28;20098;-74
2021/12/26 05:20:33;;;;;;;3.80;2.53;;;;;;;;;;5057068;28;20072;-74
2021/12/26 05:22:59;;;;;;;5.25;2.08;;;-4.80;99.90;;;;;;5059246;28;20048;-74
2021/12/26 05:25:26;;;;;;;4.80;2.53;;;;;;;;;;5073417;28;20049;-73
2021/12/26 05:27:53;;;;;;;4.30;2.35;;;-5.10;99.90;;;;;;5077288;28;20048;-73
2021/12/26 05:30:21;;;;;;;4.63;2.55;;;-5.00;99.90;;;;;;5093458;28;20622;-73
2021/12/26 05:32:47;;;;;;;4.78;2.58;;;;;;;;;;5066946;28;20037;-73
2021/12/26 05:35:16;;;;;;;3.50;2.58;;;-4.80;99.90;;;;;;5087886;28;20479;-73
2021/12/26 05:37:43;;;;;;;4.95;2.50;;;-5.10;99.90;;;;;;5072761;28;20098;-74
2021/12/26 05:40:11;;;;;;;3.03;2.45;;;-5.00;99.90;;;;;;5073386;28;20044;-73
2021/12/26 05:42:37;;;;;;;3.75;2.40;;;;;;;;;;5076434;28;20044;-73
2021/12/26 05:45:04;;;;;;;4.30;2.65;;;;;;;;;;5057114;28;20044;-73
2021/12/26 05:47:31;;;;;;;6.07;2.60;;;;;;;;;;5058940;28;20098;-74
2021/12/26 05:49:57;;;;;;;4.03;2.60;;;;;;;;;;5074694;28;20041;-73
2021/12/26 05:52:23;;;;;;;7.10;3.05;;;;;;;;;;5056531;28;20036;-74
2021/12/26 05:54:49;;;;;;;4.32;3.00;;;-4.90;99.90;;;;;;5080640;28;20430;-74
2021/12/26 05:57:16;;;;;;;3.50;2.95;;;;;;;;;;5075113;28;20040;-74
2021/12/26 05:59:42;;;;;;;5.70;2.42;;;;;;;;;;5082938;28;20047;-74
2021/12/26 06:02:08;;;;;;;4.10;2.67;;;;;;;;;;5080571;28;20079;-74
2021/12/26 06:04:34;;;;;;;4.22;2.70;;;;;;;;;;5080035;28;20041;-74
2021/12/26 06:07:00;;;;;;;5.63;2.55;;;-5.00;99.90;;;;;;5056346;28;20097;-74
2021/12/26 06:09:26;;;;;;;4.63;2.50;;;;;;;;;;5083589;28;20097;-74
2021/12/26 06:11:53;;;;;;;2.30;2.10;;;;;;;;;;5088979;28;20558;-73
2021/12/26 06:14:19;;;;;;;8.38;2.42;;;;;;;;;;5081425;28;20059;-74
2021/12/26 06:16:45;;;;;;;3.75;2.15;;;;;;;;;;5092608;28;20078;-74
2021/12/26 06:19:11;;;;;;;3.90;2.30;;;;;;;;;;5072394;28;20047;-74
2021/12/26 06:21:37;;;;;;;5.07;2.58;;;;;;;;;;5072818;28;20106;-75
2021/12/26 06:24:03;;;;;;;3.65;2.47;;;;;;;;;;5056439;28;20041;-74
2021/12/26 06:26:30;;;;;;;3.90;2.03;;;;;;;;;;5072613;28;20040;-74
2021/12/26 06:28:57;;;;;;;3.20;2.28;;;;;;;;;;5076449;28;20484;-74
2021/12/26 06:31:23;;;;;;;5.70;3.00;;;;;;;;;;5075832;28;20126;-74
2021/12/26 06:33:49;;;;;;;4.03;2.47;;;;;;;;;;5059776;28;20109;-73
2021/12/26 06:36:16;;;;;;;4.38;2.50;;;-5.00;99.90;;;;;;5092488;28;20071;-74
2021/12/26 06:38:43;;;;;;;4.85;2.33;;;;;;;;;;5090278;28;20039;-74
2021/12/26 06:41:12;;;;;;;5.47;2.40;;;;;;;;;;5072442;28;20036;-74
2021/12/26 06:43:38;;;;;;;4.57;2.38;;;;;;;;;;5072844;28;20045;-73
2021/12/26 06:46:04;;;;;;;4.95;2.90;;;;;;;;;;5077165;28;20454;-73
2021/12/26 06:48:30;;;;;;;5.07;2.70;;;;;;;;;;5067223;28;20036;-73
2021/12/26 06:50:56;;;;;;;4.65;2.53;;;;;;;;;;5072165;28;20079;-73
2021/12/26 06:53:23;;;;;;;5.57;3.00;;;;;;;;;;5071949;28;20499;-73
2021/12/26 06:55:49;;;;;;;4.50;2.53;;;;;;;;;;5079039;28;20083;-73
2021/12/26 06:58:15;;;;;;;5.45;2.47;;;;;;;;;;5072891;28;20158;-73
2021/12/26 07:00:42;;;;;;;3.75;2.55;;;;;;;;;;5089064;28;20100;-73
2021/12/26 07:03:08;;;;;;;3.95;2.50;;;;;;;;;;5059977;28;20097;-73
2021/12/26 07:05:34;;;;;;;6.50;2.78;;;;;;;;;;5065537;28;20046;-73
2021/12/26 07:08:00;;;;;;;5.25;2.40;;;;;;;;;;5071848;28;20044;-73
2021/12/26 07:10:26;;;;;;;4.28;2.85;;;;;;;;;;5066565;28;20086;-73
2021/12/26 07:12:52;;;;;;;8.02;3.10;;;;;;;;;;5054875;28;20438;-73
2021/12/26 07:15:18;;;;;;;4.68;3.10;;;;;;;;;;5062672;28;20028;-74
2021/12/26 07:17:44;;;;;;;9.05;3.00;;;;;;;;;;5083199;28;20066;-73
2021/12/26 07:20:14;;;;;;;5.25;2.83;;;-5.20;99.90;;;;;;5064061;28;20496;-73
2021/12/26 07:22:40;;;;;;;5.07;2.85;;;;;;;;;;5088100;28;20093;-73
2021/12/26 07:25:07;;;;;;;5.30;2.85;;;-5.00;99.90;;;;;;5078295;28;20036;-73
2021/12/26 07:27:33;;;;;;;7.60;2.55;;;;;;;;;;5071443;28;20037;-73
2021/12/26 07:30:02;;;;;;;4.15;2.90;;;;;;;;;;5080989;28;20118;-73
2021/12/26 07:32:29;;;;;;;7.38;3.22;;;;;;;;;;5081182;28;20095;-73
2021/12/26 07:34:55;;;;;;;4.22;2.70;;;;;;;;;;5065024;28;20063;-74
2021/12/26 07:37:21;;;;;;;5.15;2.85;;;;;;;;;;5075812;28;20033;-73
2021/12/26 07:39:47;;;;;;;4.70;2.95;;;;;;;;;;5062781;28;20116;-73
2021/12/26 07:42:13;;;;;;;8.70;2.88;;;;;;;;;;5070356;28;20132;-73
2021/12/26 07:44:39;;;;;;;4.82;2.70;;;;;;;;;;5088719;28;20058;-73
2021/12/26 07:47:06;;;;;;;5.10;2.95;;;;;;;;;;5075008;28;20173;-73
2021/12/26 07:49:32;;;;;;;4.82;2.70;;;;;;;;;;5063161;28;20423;-73
2021/12/26 07:51:59;;;;;;;4.22;2.65;;;;;;;;;;5075540;28;20502;-73
2021/12/26 07:54:26;;;;;;;7.25;3.50;;;;;;;;;;5083859;28;20043;-73
2021/12/26 07:56:54;;;;;;;7.22;3.30;;;;;;;;;;5075794;28;20054;-73
2021/12/26 07:59:20;;;;;;;6.07;3.30;;;;;;;;;;5083768;28;20051;-73
2021/12/26 08:01:47;;;;;;;5.15;3.05;;;-5.20;99.90;;;;;;5065539;28;20044;-73
2021/12/26 08:04:14;;;;;;;5.38;3.17;;;-5.20;99.90;;;;;;5084611;28;20127;-73
2021/12/26 08:06:40;;;;;;;5.00;2.60;;;-5.10;99.90;;;;;;5075982;28;20041;-73
2021/12/26 08:09:07;;;;;;;4.00;2.92;;;;;;;;;;5078322;28;20036;-73
2021/12/26 08:11:33;;;;;;;5.10;2.78;;;;;;;;;;5084224;28;20477;-71
2021/12/26 08:14:00;;;;;;;4.43;2.75;;;;;;;;;;5062708;28;20059;-73
2021/12/26 08:16:26;;;;;;;4.88;3.60;;;;;;;;;;5081478;28;20036;-73
2021/12/26 08:18:53;;;;;;;6.47;3.40;;;;;;;;;;5081711;28;20093;-73
2021/12/26 08:21:19;;;;;;;4.43;2.90;;;;;;;;;;5084549;28;20044;-73
2021/12/26 08:23:45;;;;;;;7.10;3.20;;;;;;;;;;5074468;28;20127;-73
2021/12/26 08:26:12;;;;;;;5.55;3.40;;;;;;;;;;5074542;28;20442;-74
2021/12/26 08:28:38;;;;;;;6.60;4.15;;;;;;;;;;5066257;28;20036;-73
2021/12/26 08:31:04;;;;;;;6.72;3.15;;;;;;;;;;5083154;28;20400;-73
2021/12/26 08:33:31;;;;;;;5.75;3.42;;;;;;;;;;5074893;28;20123;-73
2021/12/26 08:35:57;;;;;;;7.38;3.63;;;;;;;;;;5074425;28;20037;-73
2021/12/26 08:38:23;;;;;;;6.97;3.55;;;;;;;;;;5074941;28;20365;-73
2021/12/26 08:40:52;;;;;;;6.95;3.38;;;-4.60;99.90;;;;;;5064399;28;20044;-74
2021/12/26 08:43:18;;;;;;;6.00;3.50;;;;;;;;;;5074033;28;20044;-73
2021/12/26 08:45:44;;;;;;;6.97;3.60;;;;;;;;;;5075078;28;20465;-73
2021/12/26 08:48:11;;;;;;;6.93;3.90;;;-4.70;99.90;;;;;;5069372;28;20044;-73
2021/12/26 08:50:37;;;;;;;5.07;3.45;;;;;;;;;;5074511;28;20400;-74
2021/12/26 08:53:03;;;;;;;5.65;3.45;;;-4.80;99.90;;;;;;5074100;28;20499;-73
2021/12/26 08:55:30;;;;;;;7.07;4.05;;;;;;;;;;5091448;28;20063;-73
2021/12/26 08:57:56;;;;;;;5.90;3.50;;;;;;;;;;5073023;28;20123;-73
2021/12/26 09:00:22;;;;;;;6.25;3.10;;;-4.50;99.90;;;;;;5073085;28;20110;-73
2021/12/26 09:02:49;;;;;;;7.68;3.88;;;;;;;;;;5057699;28;20054;-73
2021/12/26 09:05:15;;;;;;;5.85;3.78;;;;;;;;;;5072777;28;20051;-73
2021/12/26 09:07:41;;;;;;;5.38;3.50;;;-4.40;99.90;;;;;;5077403;28;20079;-74
2021/12/26 09:10:09;;;;;;;6.35;3.83;;;-4.40;99.90;;;;;;5057238;28;20044;-73
2021/12/26 09:12:35;;;;;;;5.88;3.67;;;;;;;;;;5088940;28;20463;-73
2021/12/26 09:15:01;;;;;;;7.80;3.90;;;;;;;;;;5092464;28;20396;-74
2021/12/26 09:17:27;;;;;;;8.32;4.07;;;;;;;;;;5080463;28;20454;-73
2021/12/26 09:19:53;;;;;;;6.43;4.10;;;;;;;;;;5073709;28;20047;-74
2021/12/26 09:22:20;;;;;;;6.90;3.78;;;;;;;;;;5085809;28;20388;-73
2021/12/26 09:24:46;;;;;;;8.40;4.30;;;;;;;;;;5076887;28;20066;-73
2021/12/26 09:27:14;;;;;;;7.25;3.95;;;-3.90;99.90;;;;;;5083121;28;20052;-73
2021/12/26 09:29:41;;;;;;;6.80;3.50;;;;;;;;;;5073563;28;20040;-74
2021/12/26 09:32:08;;;;;;;7.55;4.47;;;;;;;;;;5081854;28;20404;-73
2021/12/26 09:34:35;;;;;;;8.32;3.80;;;-3.80;99.90;;;;;;5076318;28;20036;-73
2021/12/26 09:37:03;;;;;;;4.75;3.30;;;-3.50;99.90;;;;;;5085959;28;20086;-73
2021/12/26 09:39:29;;;;;;;6.47;3.47;;;;;;;;;;5073424;28;20123;-74
2021/12/26 09:41:55;;;;;;;7.93;3.67;;;;;;;;;;5078814;28;20071;-74
2021/12/26 09:44:22;;;;;;;5.95;3.63;;;;;;;;;;5060661;28;20043;-74
2021/12/26 09:46:48;;;;;;;8.18;4.13;;;;;;;;;;5040105;28;20128;-73
2021/12/26 09:49:14;;;;;;;8.32;3.97;;;;;;;;;;5072878;28;20040;-73
2021/12/26 09:51:41;;;;;;;7.68;3.55;;;;;;;;;;5055731;28;20072;-73
2021/12/26 09:54:08;;;;;;;6.40;3.90;;;;;;;;;;5081483;28;20040;-73
2021/12/26 09:56:34;;;;;;;7.32;3.72;;;;;;;;;;5093073;28;20044;-73
2021/12/26 09:59:00;;;;;;;8.80;3.63;;;;;;;;;;5072978;28;20044;-73
2021/12/26 10:01:28;;;;;;;7.50;3.78;;;-3.20;99.90;;;;;;5072486;28;20044;-74
2021/12/26 10:03:54;;;;;;;6.93;3.83;;;;;;;;;;5084520;28;20392;-73
2021/12/26 10:06:20;;;;;;;5.00;3.53;;;;;;;;;;5072435;28;20036;-73
2021/12/26 10:08:53;;;;;;;5.45;3.67;;;;;;;;;;5089610;28;20040;-73
2021/12/26 10:11:20;;;;;;;5.85;3.88;;;;;;;;;;5092578;28;20067;-73
2021/12/26 10:13:50;;;;;;;6.07;3.80;;;;;;;;;;5071727;28;20044;-73
2021/12/26 10:16:17;;;;;;;5.53;3.33;;;;;;;;;;5070952;28;20041;-74
2021/12/26 10:18:44;;;;;;;5.53;3.85;;;-2.70;99.90;;;;;;5075213;28;20483;-73
2021/12/26 10:21:25;;;;;;;5.25;3.80;;;;;;;;;;5072338;28;20036;-73
2021/12/26 10:23:53;;;;;;;5.60;3.65;;;-2.80;99.90;;;;;;5086456;28;20039;-73
2021/12/26 10:26:26;;;;;;;5.72;4.10;;;-2.80;99.90;;;;;;5092480;28;20115;-73
2021/12/26 10:29:10;;;;;;;7.60;3.78;;;;;;;;;;5087273;28;20177;-73
2021/12/26 10:31:42;;;;;;;8.13;4.70;;;-2.60;99.90;;;;;;5089169;28;20044;-74
2021/12/26 10:34:16;;;;;;;5.07;4.13;;;-2.30;99.90;;;;;;5087359;28;20044;-74
2021/12/26 10:36:44;;;;;;;7.18;3.75;;;;;;;;;;5090806;28;20177;-74
2021/12/26 10:39:12;;;;;;;8.73;4.60;;;-2.40;99.90;;;;;;5076316;28;20124;-74
2021/12/26 10:42:03;;;;;;;7.05;3.83;;;-2.40;99.90;;;;;;5083628;28;20043;-74
2021/12/26 10:44:36;;;;;;;6.63;3.90;;;-2.30;99.90;;;;;;5073379;28;20048;-74
2021/12/26 10:47:07;;;;;;;5.57;4.00;;;;;;;;;;5071921;28;20045;-74
2021/12/26 10:49:35;;;;;;;7.13;4.00;;;-2.40;99.90;;;;;;5088399;28;20047;-74
2021/12/26 10:52:01;;;;;;;7.45;4.40;;;;;;;;;;5077683;28;20036;-73
2021/12/26 10:54:31;;;;;;;9.13;4.47;;;-2.10;99.90;;;;;;5088236;28;20051;-74
2021/12/26 10:57:12;;;;;;;6.18;4.13;;;;;;;;;;5092339;28;20044;-74
2021/12/26 10:59:44;;;;;;;8.68;4.40;;;;;;;;;;5075592;28;20052;-74
2021/12/26 11:02:10;;;;;;;8.60;4.35;;;;;;;;;;5086996;28;20039;-74
2021/12/26 11:04:38;;;;;;;6.18;4.13;;;;;;;;;;5074875;28;20033;-74
2021/12/26 11:07:10;;;;;;;6.55;4.60;;;-1.90;99.90;;;;;;5055888;28;20048;-74
2021/12/26 11:09:36;;;;;;;5.10;4.05;;;;;;;;;;5086745;28;20101;-74
2021/12/26 11:12:04;;;;;;;7.70;4.47;;;;;;;;;;5087163;28;20040;-74
2021/12/26 11:14:30;;;;;;;10.82;4.38;;;;;;;;;;5077394;28;20050;-74
2021/12/26 11:16:56;;;;;;;8.70;4.85;;;;;;;;;;5072059;28;20130;-74
2021/12/26 11:19:45;;;;;;;9.40;4.75;;;-1.50;99.90;;;;;;5073674;28;20043;-73
2021/12/26 11:22:12;;;;;;;8.45;4.20;;;;;;;;;;5091287;28;20392;-75
2021/12/26 11:24:38;;;;;;;11.18;4.85;;;;;;;;;;5071465;28;20497;-75
2021/12/26 11:27:05;;;;;;;10.15;5.18;;;;;;;;;;5054943;28;20083;-76
2021/12/26 11:29:31;;;;;;;8.95;5.50;;;;;;;;;;5090381;28;20483;-76
2021/12/26 11:31:57;;;;;;;7.80;5.32;;;;;;;;;;5091502;28;20052;-76
2021/12/26 11:34:26;;;;;;;8.63;4.68;;;-0.70;99.90;;;;;;5074211;28;20389;-75
2021/12/26 11:36:52;;;;;;;6.82;4.68;;;;;;;;;;5082082;28;20062;-75
2021/12/26 11:39:19;;;;;;;6.53;4.43;;;-0.60;99.90;;;;;;5090520;28;20043;-75
2021/12/26 11:41:54;;;;;;;7.90;5.50;;;;;;;;;;5076664;28;20105;-76
2021/12/26 11:44:51;;;;;;;7.80;4.75;;;-0.40;99.90;;;;;;5086140;28;20040;-76
2021/12/26 11:47:40;;;;;;;12.73;5.63;;;;;;;;;;5091271;28;20044;-75
2021/12/26 11:50:12;;;;;;;8.50;4.55;;;;;;;;;;5071538;28;20492;-76
2021/12/26 11:53:24;;;;;;;7.20;5.00;;;-0.30;99.90;;;;;;5071289;28;20073;-76
2021/12/26 11:55:55;;;;;;;6.83;4.50;;;;;;;;;;5086745;28;20059;-76
2021/12/26 11:58:58;;;;;;;7.10;4.15;;;0.10;99.90;;;;;;5075120;28;20499;-76
2021/12/26 12:01:26;;;;;;;6.97;4.28;;;0.10;99.90;;;;;;5081514;28;20039;-75
2021/12/26 12:04:17;;;;;;;6.47;4.47;;;;;;;;;;5083420;28;20040;-75
2021/12/26 12:06:43;;;;;;;6.72;4.28;;;;;;;;;;5071439;28;20485;-75
2021/12/26 12:09:25;;;;;;;8.35;4.95;;;;;;;;;;5084032;28;20119;-71
2021/12/26 12:12:06;;;;;;;7.90;4.65;;;;;;;;;;5091678;28;20040;-75
2021/12/26 12:14:52;;;;;;;6.43;4.45;;;-0.10;99.90;;;;;;5079107;28;20504;-75
2021/12/26 12:17:32;;;;;;;8.07;4.78;;;;;;;;;;5074587;28;20555;-75
2021/12/26 12:20:17;;;;;;;8.07;4.65;;;0.00;99.90;;;;;;5095033;28;20048;-75
2021/12/26 12:23:09;;;;;;;9.02;4.38;;;0.00;99.90;;;;;;5094196;28;20044;-75
2021/12/26 12:25:41;;;;;;;9.27;5.40;;;;;;;;;;5090327;28;20510;-75
2021/12/26 12:28:22;;;;;;;10.20;5.50;;;;;;;;;;5093995;28;20470;-75
2021/12/26 12:30:57;;;;;;;8.98;5.45;;;-0.20;99.90;;;;;;5078094;28;20036;-75
2021/12/26 12:33:25;;;;;;;9.88;5.13;;;;;;;;;;5089146;28;20118;-75
2021/12/26 12:35:59;;;;;;;10.23;4.88;;;0.00;99.90;;;;;;5074586;28;20040;-75
2021/12/26 12:38:30;;;;;;;9.40;5.22;;;;;;;;;;5090412;28;20487;-75
2021/12/26 12:40:57;;;;;;;8.05;4.80;;;0.00;99.90;;;;;;5094778;28;20484;-75
2021/12/26 12:43:25;;;;;;;7.70;4.60;;;0.20;99.90;;;;;;5093069;28;20429;-75
2021/12/26 12:46:12;;;;;;;7.07;4.63;;;;;;;;;;5094932;28;20118;-75
2021/12/26 12:49:00;;;;;;;8.10;5.32;;;0.20;99.90;;;;;;5073600;28;20036;-74
2021/12/26 12:51:26;;;;;;;7.75;4.70;;;;;;;;;;5074277;28;20548;-74
2021/12/26 12:53:57;;;;;;;9.88;5.10;;;;;;;;;;5081981;28;20072;-75
2021/12/26 12:56:36;;;;;;;10.35;5.25;;;0.30;99.90;;;;;;5094006;28;20051;-74
2021/12/26 12:59:18;;;;;;;9.90;5.10;;;;;;;;;;5093022;28;20134;-74
2021/12/26 13:01:44;;;;;;;;;;;;;;;;;;5075257;28;20037;-74
2021/12/26 13:04:11;;;;;;;8.15;4.93;;;;;;;;;;5057611;28;19942;-74
2021/12/26 13:06:48;;;;;;;7.55;4.82;;;0.90;99.90;;;;;;5073853;28;20052;-75
2021/12/26 13:09:15;;;;;;;10.57;4.80;;;;;;;;;;5082336;28;20496;-74
2021/12/26 13:11:41;;;;;;;8.13;5.00;;;;;;;;;;5076068;28;20067;-75
2021/12/26 13:14:07;;;;;;;8.15;4.72;;;;;;;;;;5057595;28;20043;-75
2021/12/26 13:16:33;;;;;;;7.15;5.13;;;;;;;;;;5073625;28;20040;-75
2021/12/26 13:19:06;;;;;;;7.60;4.72;;;;;;;;;;5079251;28;20480;-75
2021/12/26 13:21:32;;;;;;;7.90;4.20;;;;;;;;;;5076964;28;20106;-75
2021/12/26 13:23:58;;;;;;;7.50;4.68;;;;;;;;;;5077949;28;20031;-75
2021/12/26 13:26:25;;;;;;;9.88;4.57;;;;;;;;;;5092811;28;20133;-75
2021/12/26 13:28:51;;;;;;;9.45;4.68;;;;;;;;;;5089400;28;20048;-75
2021/12/26 13:31:22;;;;;;;8.15;4.60;;;1.20;99.90;;;;;;5072725;28;20106;-75
2021/12/26 13:33:54;;;;;;;7.20;4.35;;;1.30;99.90;;;;;;5074197;28;20045;-74
2021/12/26 13:36:22;;;;;;;6.70;4.93;;;;;;;;;;5092211;28;20039;-75
2021/12/26 13:38:49;;;;;;;7.40;4.72;;;;;;;;;;5090348;28;20379;-75
2021/12/26 13:41:18;;;;;;;13.35;5.53;;;;;;;;;;5086471;28;20042;-75
2021/12/26 13:43:45;;;;;;;8.40;4.93;;;1.40;99.90;;;;;;5092605;28;20040;-75
2021/12/26 13:46:14;;;;;;;9.90;5.22;;;;;;;;;;5056901;28;20131;-75
2021/12/26 13:48:42;;;;;;;9.27;4.90;;;;;;;;;;5073214;28;20123;-75
2021/12/26 13:51:21;;;;;;;9.30;5.15;;;;;;;;;;5085101;28;20046;-75
2021/12/26 13:53:47;;;;;;;9.30;5.05;;;;;;;;;;5093065;28;20076;-74
2021/12/26 13:56:14;;;;;;;31.10;14.18;;;;;;;;;;5072272;28;20043;-74
2021/12/26 13:58:40;;;;;;;31.70;12.68;;;;;;;;;;5073180;28;20037;-74
2021/12/26 14:01:08;;;;;;;14.88;6.80;;;1.50;99.90;;;;;;5089664;28;20040;-76
2021/12/26 14:03:35;;;;;;;9.35;6.00;;;;;;;;;;5092277;28;20040;-73
2021/12/26 14:06:01;;;;;;;24.58;12.20;;;;;;;;;;5084328;28;20127;-75
2021/12/26 14:08:28;;;;;;;8.90;5.00;;;;;;;;;;5091226;28;20082;-75
2021/12/26 14:10:58;;;;;;;8.85;4.75;;;1.50;99.90;;;;;;5091609;28;20036;-75
2021/12/26 14:13:26;;;;;;;10.15;5.35;;;1.50;99.60;;;;;;5075213;28;20032;-75
2021/12/26 14:15:57;;;;;;;13.18;5.43;;;;;;;;;;5075525;28;20118;-74
2021/12/26 14:18:27;;;;;;;9.77;5.45;;;;;;;;;;5075881;28;20043;-74